sensor_id;sensor_type;location;lat;lon;timestamp;pressure;altitude;pressure_sealevel;temperature;humidity
11011;BME280;5558;42.702;23.178;2023-05-01T00:00:46;93655.44;;;24.13;43.13
11011;BME280;5558;42.702;23.178;2023-05-01T00:03:13;93658.50;;;24.12;42.90
11011;BME280;5558;42.702;23.178;2023-05-01T00:05:40;93651.13;;;24.12;43.13
11011;BME280;5558;42.702;23.178;2023-05-01T00:08:06;93649.22;;;24.13;43.04
11011;BME280;5558;42.702;23.178;2023-05-01T00:10:34;93652.72;;;24.13;42.68
11011;BME280;5558;42.702;23.178;2023-05-01T00:13:00;93643.81;;;24.13;42.72
11011;BME280;5558;42.702;23.178;2023-05-01T00:15:27;93646.53;;;24.13;42.63
11011;BME280;5558;42.702;23.178;2023-05-01T00:17:56;93650.03;;;24.13;42.77
11011;BME280;5558;42.702;23.178;2023-05-01T00:20:25;93650.78;;;24.13;42.85
11011;BME280;5558;42.702;23.178;2023-05-01T00:22:52;93646.53;;;24.13;42.89
11011;BME280;5558;42.702;23.178;2023-05-01T00:25:18;93625.19;;;23.95;42.91
11011;BME280;5558;42.702;23.178;2023-05-01T00:27:45;93647.31;;;24.13;42.93
11011;BME280;5558;42.702;23.178;2023-05-01T00:30:12;93647.66;;;24.12;42.70
11011;BME280;5558;42.702;23.178;2023-05-01T00:32:39;93654.28;;;24.14;42.93
11011;BME280;5558;42.702;23.178;2023-05-01T00:35:08;93653.19;;;24.15;42.79
11011;BME280;5558;42.702;23.178;2023-05-01T00:37:35;93659.34;;;24.16;42.79
11011;BME280;5558;42.702;23.178;2023-05-01T00:40:01;93659.34;;;24.16;42.73
11011;BME280;5558;42.702;23.178;2023-05-01T00:42:33;93665.19;;;24.18;42.65
11011;BME280;5558;42.702;23.178;2023-05-01T00:45:00;93656.28;;;24.17;42.51
11011;BME280;5558;42.702;23.178;2023-05-01T00:47:27;93658.59;;;24.15;42.62
11011;BME280;5558;42.702;23.178;2023-05-01T00:49:54;93664.75;;;24.16;42.44
11011;BME280;5558;42.702;23.178;2023-05-01T00:52:23;93657.44;;;24.16;42.75
11011;BME280;5558;42.702;23.178;2023-05-01T00:54:50;93667.13;;;24.17;42.60
11011;BME280;5558;42.702;23.178;2023-05-01T00:57:17;93660.94;;;24.17;42.44
11011;BME280;5558;42.702;23.178;2023-05-01T00:59:44;93669.81;;;24.17;42.67
11011;BME280;5558;42.702;23.178;2023-05-01T01:02:11;93665.56;;;24.16;42.77
11011;BME280;5558;42.702;23.178;2023-05-01T01:04:38;93674.47;;;24.17;42.70
11011;BME280;5558;42.702;23.178;2023-05-01T01:07:09;93669.06;;;24.17;42.47
11011;BME280;5558;42.702;23.178;2023-05-01T01:09:47;93672.53;;;24.17;42.37
11011;BME280;5558;42.702;23.178;2023-05-01T01:12:25;93670.97;;;24.16;42.72
11011;BME280;5558;42.702;23.178;2023-05-01T01:14:58;93677.16;;;24.17;42.34
11011;BME280;5558;42.702;23.178;2023-05-01T01:17:31;93680.63;;;24.17;42.29
11011;BME280;5558;42.702;23.178;2023-05-01T01:20:21;93684.94;;;24.18;42.63
11011;BME280;5558;42.702;23.178;2023-05-01T01:22:53;93678.72;;;24.18;42.32
11011;BME280;5558;42.702;23.178;2023-05-01T01:25:50;93682.22;;;24.18;42.65
11011;BME280;5558;42.702;23.178;2023-05-01T01:28:34;93684.13;;;24.18;42.34
11011;BME280;5558;42.702;23.178;2023-05-01T01:31:13;93680.63;;;24.17;42.61
11011;BME280;5558;42.702;23.178;2023-05-01T01:34:00;93689.19;;;24.19;42.34
11011;BME280;5558;42.702;23.178;2023-05-01T01:36:36;93684.50;;;24.16;42.44
11011;BME280;5558;42.702;23.178;2023-05-01T01:39:10;93679.53;;;24.18;42.57
11011;BME280;5558;42.702;23.178;2023-05-01T01:41:39;93686.50;;;24.19;42.52
11011;BME280;5558;42.702;23.178;2023-05-01T01:44:15;93689.53;;;24.18;42.54
11011;BME280;5558;42.702;23.178;2023-05-01T01:46:47;93657.41;;;24.00;42.33
11011;BME280;5558;42.702;23.178;2023-05-01T01:49:18;93691.91;;;24.19;42.19
11011;BME280;5558;42.702;23.178;2023-05-01T01:51:49;93691.09;;;24.19;42.24
11011;BME280;5558;42.702;23.178;2023-05-01T01:54:21;93693.06;;;24.18;42.33
11011;BME280;5558;42.702;23.178;2023-05-01T01:56:49;93688.41;;;24.19;42.20
11011;BME280;5558;42.702;23.178;2023-05-01T01:59:17;93683.34;;;24.17;42.23
11011;BME280;5558;42.702;23.178;2023-05-01T02:01:48;93680.72;;;24.21;42.26
11011;BME280;5558;42.702;23.178;2023-05-01T02:04:18;93688.50;;;24.22;42.05
11011;BME280;5558;42.702;23.178;2023-05-01T02:06:45;93673.75;;;24.20;42.07
11011;BME280;5558;42.702;23.178;2023-05-01T02:09:13;93674.88;;;24.19;41.98
11011;BME280;5558;42.702;23.178;2023-05-01T02:11:42;93685.03;;;24.22;42.42
11011;BME280;5558;42.702;23.178;2023-05-01T02:14:10;93678.47;;;24.23;42.31
11011;BME280;5558;42.702;23.178;2023-05-01T02:16:38;93682.31;;;24.22;42.24
11011;BME280;5558;42.702;23.178;2023-05-01T02:19:07;93674.19;;;24.22;42.34
11011;BME280;5558;42.702;23.178;2023-05-01T02:21:36;93672.63;;;24.21;42.16
11011;BME280;5558;42.702;23.178;2023-05-01T02:24:04;93680.03;;;24.24;42.24
11011;BME280;5558;42.702;23.178;2023-05-01T02:26:40;93669.56;;;24.22;42.17
11011;BME280;5558;42.702;23.178;2023-05-01T02:29:07;93668.78;;;24.22;42.20
11011;BME280;5558;42.702;23.178;2023-05-01T02:31:34;93673.06;;;24.23;42.22
11011;BME280;5558;42.702;23.178;2023-05-01T02:34:00;93666.84;;;24.22;42.04
11011;BME280;5558;42.702;23.178;2023-05-01T02:36:27;93667.66;;;24.23;42.22
11011;BME280;5558;42.702;23.178;2023-05-01T02:38:55;93667.66;;;24.23;41.77
11011;BME280;5558;42.702;23.178;2023-05-01T02:41:24;93673.84;;;24.23;42.17
11011;BME280;5558;42.702;23.178;2023-05-01T02:43:56;93674.97;;;24.22;41.88
11011;BME280;5558;42.702;23.178;2023-05-01T02:46:24;93671.50;;;24.22;41.98
11011;BME280;5558;42.702;23.178;2023-05-01T02:48:52;93665.66;;;24.20;42.04
11011;BME280;5558;42.702;23.178;2023-05-01T02:51:20;93675.41;;;24.24;41.95
11011;BME280;5558;42.702;23.178;2023-05-01T02:53:48;93678.91;;;24.25;42.00
11011;BME280;5558;42.702;23.178;2023-05-01T02:56:16;93683.19;;;24.26;42.11
11011;BME280;5558;42.702;23.178;2023-05-01T02:58:43;93686.22;;;24.24;42.12
11011;BME280;5558;42.702;23.178;2023-05-01T03:01:10;93683.53;;;24.24;41.73
11011;BME280;5558;42.702;23.178;2023-05-01T03:03:37;93681.63;;;24.25;42.00
11011;BME280;5558;42.702;23.178;2023-05-01T03:06:04;93684.31;;;24.25;42.03
11011;BME280;5558;42.702;23.178;2023-05-01T03:08:31;93661.09;;;24.08;41.85
11011;BME280;5558;42.702;23.178;2023-05-01T03:10:57;93683.53;;;24.24;41.71
11011;BME280;5558;42.702;23.178;2023-05-01T03:13:25;93683.19;;;24.26;41.77
11011;BME280;5558;42.702;23.178;2023-05-01T03:15:52;93688.59;;;24.26;41.91
11011;BME280;5558;42.702;23.178;2023-05-01T03:18:19;93688.59;;;24.26;42.08
11011;BME280;5558;42.702;23.178;2023-05-01T03:20:52;93683.97;;;24.26;41.97
11011;BME280;5558;42.702;23.178;2023-05-01T03:23:19;93676.13;;;24.21;41.93
11011;BME280;5558;42.702;23.178;2023-05-01T03:25:45;93683.63;;;24.28;41.54
11011;BME280;5558;42.702;23.178;2023-05-01T03:28:12;93688.25;;;24.27;41.86
11011;BME280;5558;42.702;23.178;2023-05-01T03:30:40;93686.31;;;24.28;41.71
11011;BME280;5558;42.702;23.178;2023-05-01T03:33:07;93679.34;;;24.27;41.67
11011;BME280;5558;42.702;23.178;2023-05-01T03:35:34;93680.91;;;24.28;41.86
11011;BME280;5558;42.702;23.178;2023-05-01T03:38:01;93680.13;;;24.27;41.84
11011;BME280;5558;42.702;23.178;2023-05-01T03:40:27;93696.34;;;24.27;41.58
11011;BME280;5558;42.702;23.178;2023-05-01T03:42:54;93693.66;;;24.27;41.77
11011;BME280;5558;42.702;23.178;2023-05-01T03:45:21;93693.66;;;24.27;41.61
11011;BME280;5558;42.702;23.178;2023-05-01T03:47:49;93694.09;;;24.29;41.92
11011;BME280;5558;42.702;23.178;2023-05-01T03:50:16;93696.88;;;24.33;41.79
11011;BME280;5558;42.702;23.178;2023-05-01T03:52:43;93693.38;;;24.32;41.60
11011;BME280;5558;42.702;23.178;2023-05-01T03:55:09;93710.06;;;24.34;41.76
11011;BME280;5558;42.702;23.178;2023-05-01T03:57:36;93702.03;;;24.38;41.61
11011;BME280;5558;42.702;23.178;2023-05-01T04:00:03;93707.53;;;24.41;41.80
11011;BME280;5558;42.702;23.178;2023-05-01T04:02:31;93704.56;;;24.46;41.50
11011;BME280;5558;42.702;23.178;2023-05-01T04:04:59;93705.53;;;24.54;41.34
11011;BME280;5558;42.702;23.178;2023-05-01T04:07:26;93711.63;;;24.66;41.19
11011;BME280;5558;42.702;23.178;2023-05-01T04:09:52;93712.91;;;24.69;41.09
11011;BME280;5558;42.702;23.178;2023-05-01T04:12:19;93713.50;;;24.62;40.98
11011;BME280;5558;42.702;23.178;2023-05-01T04:14:46;93725.66;;;24.68;41.28
11011;BME280;5558;42.702;23.178;2023-05-01T04:17:12;93721.09;;;24.72;40.88
11011;BME280;5558;42.702;23.178;2023-05-01T04:19:39;93723.91;;;24.76;41.01
11011;BME280;5558;42.702;23.178;2023-05-01T04:22:07;93729.81;;;24.81;41.13
11011;BME280;5558;42.702;23.178;2023-05-01T04:24:34;93732.63;;;24.85;40.90
11011;BME280;5558;42.702;23.178;2023-05-01T04:27:01;93734.63;;;24.88;40.90
11011;BME280;5558;42.702;23.178;2023-05-01T04:29:29;93738.47;;;24.87;40.68
11011;BME280;5558;42.702;23.178;2023-05-01T04:31:55;93739.25;;;24.87;40.69
11011;BME280;5558;42.702;23.178;2023-05-01T04:34:22;93730.44;;;24.90;40.95
11011;BME280;5558;42.702;23.178;2023-05-01T04:36:49;93738.66;;;24.94;41.05
11011;BME280;5558;42.702;23.178;2023-05-01T04:39:18;93711.56;;;24.78;40.94
11011;BME280;5558;42.702;23.178;2023-05-01T04:41:44;93736.38;;;24.96;40.89
11011;BME280;5558;42.702;23.178;2023-05-01T04:44:11;93735.66;;;24.99;40.74
11011;BME280;5558;42.702;23.178;2023-05-01T04:46:38;93734.25;;;25.05;40.81
11011;BME280;5558;42.702;23.178;2023-05-01T04:49:04;93736.00;;;25.13;40.53
11011;BME280;5558;42.702;23.178;2023-05-01T04:51:32;93733.00;;;25.18;40.46
11011;BME280;5558;42.702;23.178;2023-05-01T04:53:58;93728.81;;;25.20;40.36
11011;BME280;5558;42.702;23.178;2023-05-01T04:56:27;93732.03;;;25.26;40.36
11011;BME280;5558;42.702;23.178;2023-05-01T04:58:53;93740.25;;;25.29;40.72
11011;BME280;5558;42.702;23.178;2023-05-01T05:01:20;93746.50;;;25.33;40.63
11011;BME280;5558;42.702;23.178;2023-05-01T05:03:47;93749.00;;;25.39;40.39
11011;BME280;5558;42.702;23.178;2023-05-01T05:06:13;93745.56;;;25.42;40.29
11011;BME280;5558;42.702;23.178;2023-05-01T05:08:40;93746.06;;;25.47;40.24
11011;BME280;5558;42.702;23.178;2023-05-01T05:11:07;93755.06;;;25.51;40.57
11011;BME280;5558;42.702;23.178;2023-05-01T05:13:35;93761.34;;;25.55;40.56
11011;BME280;5558;42.702;23.178;2023-05-01T05:16:02;93763.78;;;25.60;40.48
11011;BME280;5558;42.702;23.178;2023-05-01T05:18:29;93768.13;;;25.65;40.56
11011;BME280;5558;42.702;23.178;2023-05-01T05:20:56;93769.38;;;25.67;40.47
11011;BME280;5558;42.702;23.178;2023-05-01T05:23:23;93759.38;;;25.71;40.26
11011;BME280;5558;42.702;23.178;2023-05-01T05:25:49;93767.22;;;25.76;40.34
11011;BME280;5558;42.702;23.178;2023-05-01T05:28:16;93770.38;;;25.78;40.30
11011;BME280;5558;42.702;23.178;2023-05-01T05:30:44;93772.78;;;25.83;40.17
11011;BME280;5558;42.702;23.178;2023-05-01T05:33:11;93769.72;;;25.85;40.98
11011;BME280;5558;42.702;23.178;2023-05-01T05:35:37;93776.53;;;25.94;42.30
11011;BME280;5558;42.702;23.178;2023-05-01T05:38:04;93772.38;;;26.00;42.03
11011;BME280;5558;42.702;23.178;2023-05-01T05:40:31;93769.31;;;26.02;41.91
11011;BME280;5558;42.702;23.178;2023-05-01T05:42:57;93780.09;;;26.17;41.60
11011;BME280;5558;42.702;23.178;2023-05-01T05:45:24;93785.31;;;26.26;41.28
11011;BME280;5558;42.702;23.178;2023-05-01T05:47:52;93789.66;;;26.30;41.00
11011;BME280;5558;42.702;23.178;2023-05-01T05:50:19;93782.38;;;26.34;41.00
11011;BME280;5558;42.702;23.178;2023-05-01T05:52:46;93783.16;;;26.35;40.68
11011;BME280;5558;42.702;23.178;2023-05-01T05:55:13;93790.28;;;26.43;40.79
11011;BME280;5558;42.702;23.178;2023-05-01T05:57:39;93796.56;;;26.47;40.60
11011;BME280;5558;42.702;23.178;2023-05-01T06:00:08;93795.84;;;26.50;40.52
11011;BME280;5558;42.702;23.178;2023-05-01T06:02:36;93800.19;;;26.55;40.38
11011;BME280;5558;42.702;23.178;2023-05-01T06:05:04;93788.19;;;26.56;40.44
11011;BME280;5558;42.702;23.178;2023-05-01T06:07:31;93804.59;;;26.63;40.46
11011;BME280;5558;42.702;23.178;2023-05-01T06:09:58;93802.78;;;26.67;40.24
11011;BME280;5558;42.702;23.178;2023-05-01T06:12:28;93800.13;;;26.70;40.17
11011;BME280;5558;42.702;23.178;2023-05-01T06:14:56;93804.84;;;26.73;40.13
11011;BME280;5558;42.702;23.178;2023-05-01T06:17:23;93801.03;;;26.78;40.15
11011;BME280;5558;42.702;23.178;2023-05-01T06:19:50;93807.31;;;26.82;40.09
11011;BME280;5558;42.702;23.178;2023-05-01T06:22:19;93793.38;;;26.83;40.12
11011;BME280;5558;42.702;23.178;2023-05-01T06:24:46;93804.72;;;26.89;39.89
11011;BME280;5558;42.702;23.178;2023-05-01T06:27:12;93809.06;;;26.93;39.71
11011;BME280;5558;42.702;23.178;2023-05-01T06:29:39;93807.97;;;26.98;39.76
11011;BME280;5558;42.702;23.178;2023-05-01T06:32:06;93806.47;;;27.00;39.75
11011;BME280;5558;42.702;23.178;2023-05-01T06:34:33;93804.59;;;27.04;39.61
11011;BME280;5558;42.702;23.178;2023-05-01T06:37:00;93806.59;;;27.07;39.52
11011;BME280;5558;42.702;23.178;2023-05-01T06:39:28;93801.22;;;27.11;39.60
11011;BME280;5558;42.702;23.178;2023-05-01T06:41:54;93807.03;;;27.13;39.45
11011;BME280;5558;42.702;23.178;2023-05-01T06:44:21;93798.25;;;27.19;39.39
11011;BME280;5558;42.702;23.178;2023-05-01T06:46:48;93797.88;;;27.21;39.32
11011;BME280;5558;42.702;23.178;2023-05-01T06:49:14;93805.34;;;27.27;39.28
11011;BME280;5558;42.702;23.178;2023-05-01T06:51:41;93812.44;;;27.32;39.21
11011;BME280;5558;42.702;23.178;2023-05-01T06:54:08;93803.53;;;27.35;39.14
11011;BME280;5558;42.702;23.178;2023-05-01T06:56:36;93814.47;;;27.38;39.13
11011;BME280;5558;42.702;23.178;2023-05-01T06:59:04;93807.16;;;27.42;39.00
11011;BME280;5558;42.702;23.178;2023-05-01T07:01:31;93814.59;;;27.45;38.98
11011;BME280;5558;42.702;23.178;2023-05-01T07:03:58;93814.66;;;27.49;38.94
11011;BME280;5558;42.702;23.178;2023-05-01T07:06:24;93811.19;;;27.52;38.87
11011;BME280;5558;42.702;23.178;2023-05-01T07:08:51;93812.84;;;27.56;38.88
11011;BME280;5558;42.702;23.178;2023-05-01T07:11:18;93809.38;;;27.59;38.78
11011;BME280;5558;42.702;23.178;2023-05-01T07:13:46;93813.28;;;27.62;38.55
11011;BME280;5558;42.702;23.178;2023-05-01T07:16:13;93820.72;;;27.65;38.61
11011;BME280;5558;42.702;23.178;2023-05-01T07:18:40;93822.72;;;27.68;38.66
11011;BME280;5558;42.702;23.178;2023-05-01T07:21:07;93826.63;;;27.71;38.57
11011;BME280;5558;42.702;23.178;2023-05-01T07:23:36;93824.31;;;27.73;38.54
11011;BME280;5558;42.702;23.178;2023-05-01T07:26:03;93828.25;;;27.75;38.56
11011;BME280;5558;42.702;23.178;2023-05-01T07:28:30;93827.88;;;27.77;38.56
11011;BME280;5558;42.702;23.178;2023-05-01T07:30:58;93820.53;;;27.81;38.47
11011;BME280;5558;42.702;23.178;2023-05-01T07:33:26;93824.41;;;27.80;38.22
11011;BME280;5558;42.702;23.178;2023-05-01T07:35:53;93813.97;;;27.82;38.44
11011;BME280;5558;42.702;23.178;2023-05-01T07:38:20;93824.16;;;27.88;38.33
11011;BME280;5558;42.702;23.178;2023-05-01T07:40:47;93824.59;;;27.90;38.30
11011;BME280;5558;42.702;23.178;2023-05-01T07:43:17;93816.44;;;27.90;38.23
11011;BME280;5558;42.702;23.178;2023-05-01T07:45:53;93823.88;;;27.93;38.21
11011;BME280;5558;42.702;23.178;2023-05-01T07:48:23;93817.69;;;27.96;38.19
11011;BME280;5558;42.702;23.178;2023-05-01T07:50:49;93819.25;;;27.97;38.24
11011;BME280;5558;42.702;23.178;2023-05-01T07:53:16;93823.16;;;28.00;38.18
11011;BME280;5558;42.702;23.178;2023-05-01T07:55:43;93819.31;;;28.01;38.08
11011;BME280;5558;42.702;23.178;2023-05-01T07:58:09;93822.41;;;28.03;38.06
11011;BME280;5558;42.702;23.178;2023-05-01T08:00:36;93820.50;;;28.03;38.14
11011;BME280;5558;42.702;23.178;2023-05-01T08:03:03;93817.81;;;28.07;37.85
11011;BME280;5558;42.702;23.178;2023-05-01T08:05:31;93822.09;;;28.08;38.08
11011;BME280;5558;42.702;23.178;2023-05-01T08:07:57;93819.78;;;28.10;37.84
11011;BME280;5558;42.702;23.178;2023-05-01T08:10:24;93819.78;;;28.10;38.00
11011;BME280;5558;42.702;23.178;2023-05-01T08:12:52;93821.78;;;28.13;37.92
11011;BME280;5558;42.702;23.178;2023-05-01T08:15:19;93822.56;;;28.13;37.99
11011;BME280;5558;42.702;23.178;2023-05-01T08:17:46;93825.72;;;28.15;38.00
11011;BME280;5558;42.702;23.178;2023-05-01T08:20:13;93821.81;;;28.16;37.73
11011;BME280;5558;42.702;23.178;2023-05-01T08:22:41;93821.44;;;28.18;37.69
11011;BME280;5558;42.702;23.178;2023-05-01T08:25:07;93821.44;;;28.18;37.72
11011;BME280;5558;42.702;23.178;2023-05-01T08:27:34;93822.66;;;28.20;37.71
11011;BME280;5558;42.702;23.178;2023-05-01T08:30:01;93813.69;;;28.20;37.72
11011;BME280;5558;42.702;23.178;2023-05-01T08:32:27;93820.72;;;28.21;37.59
11011;BME280;5558;42.702;23.178;2023-05-01T08:34:54;93818.41;;;28.23;37.69
11011;BME280;5558;42.702;23.178;2023-05-01T08:37:21;93814.91;;;28.22;37.58
11011;BME280;5558;42.702;23.178;2023-05-01T08:39:49;93814.53;;;28.24;37.75
11011;BME280;5558;42.702;23.178;2023-05-01T08:42:16;93820.34;;;28.22;37.77
11011;BME280;5558;42.702;23.178;2023-05-01T08:44:45;93815.34;;;28.24;37.46
11011;BME280;5558;42.702;23.178;2023-05-01T08:47:15;93815.72;;;28.26;37.53
11011;BME280;5558;42.702;23.178;2023-05-01T08:49:43;93815.38;;;28.28;37.54
11011;BME280;5558;42.702;23.178;2023-05-01T08:52:10;93808.34;;;28.27;37.43
11011;BME280;5558;42.702;23.178;2023-05-01T08:54:38;93818.09;;;28.28;37.54
11011;BME280;5558;42.702;23.178;2023-05-01T08:57:09;93792.63;;;28.13;37.37
11011;BME280;5558;42.702;23.178;2023-05-01T08:59:37;93814.22;;;28.29;37.66
11011;BME280;5558;42.702;23.178;2023-05-01T09:02:06;93788.75;;;28.14;37.44
11011;BME280;5558;42.702;23.178;2023-05-01T09:04:33;93811.09;;;28.30;37.44
11011;BME280;5558;42.702;23.178;2023-05-01T09:07:01;93814.22;;;28.29;37.47
11011;BME280;5558;42.702;23.178;2023-05-01T09:09:28;93792.28;;;28.18;37.31
11011;BME280;5558;42.702;23.178;2023-05-01T09:11:59;93806.47;;;28.31;37.32
11011;BME280;5558;42.702;23.178;2023-05-01T09:14:27;93810.75;;;28.32;37.21
11011;BME280;5558;42.702;23.178;2023-05-01T09:16:54;93807.63;;;28.33;37.22
11011;BME280;5558;42.702;23.178;2023-05-01T09:19:21;93804.91;;;28.33;37.40
11011;BME280;5558;42.702;23.178;2023-05-01T09:21:48;93807.63;;;28.33;37.40
11011;BME280;5558;42.702;23.178;2023-05-01T09:24:15;93806.50;;;28.34;37.16
11011;BME280;5558;42.702;23.178;2023-05-01T09:26:41;93810.00;;;28.35;37.18
11011;BME280;5558;42.702;23.178;2023-05-01T09:29:08;93811.94;;;28.34;37.15
11011;BME280;5558;42.702;23.178;2023-05-01T09:31:37;93812.72;;;28.35;37.30
11011;BME280;5558;42.702;23.178;2023-05-01T09:34:04;93803.78;;;28.34;37.12
11011;BME280;5558;42.702;23.178;2023-05-01T09:36:33;93803.78;;;28.34;36.96
11011;BME280;5558;42.702;23.178;2023-05-01T09:39:02;93799.88;;;28.35;37.11
11011;BME280;5558;42.702;23.178;2023-05-01T09:41:29;93806.53;;;28.38;37.01
11011;BME280;5558;42.702;23.178;2023-05-01T09:43:58;93805.38;;;28.39;37.06
11011;BME280;5558;42.702;23.178;2023-05-01T09:46:26;93805.75;;;28.37;37.00
11011;BME280;5558;42.702;23.178;2023-05-01T09:48:55;93803.41;;;28.36;37.06
11011;BME280;5558;42.702;23.178;2023-05-01T09:51:24;93801.06;;;28.34;37.02
11011;BME280;5558;42.702;23.178;2023-05-01T09:53:53;93804.91;;;28.33;37.11
11011;BME280;5558;42.702;23.178;2023-05-01T09:56:20;93795.19;;;28.32;36.87
11011;BME280;5558;42.702;23.178;2023-05-01T09:58:48;93797.91;;;28.32;36.96
11011;BME280;5558;42.702;23.178;2023-05-01T10:01:15;93790.53;;;28.33;37.03
11011;BME280;5558;42.702;23.178;2023-05-01T10:03:42;93793.25;;;28.33;36.87
11011;BME280;5558;42.702;23.178;2023-05-01T10:06:11;93797.91;;;28.32;36.97
11011;BME280;5558;42.702;23.178;2023-05-01T10:08:45;93792.84;;;28.31;36.91
11011;BME280;5558;42.702;23.178;2023-05-01T10:11:12;93785.81;;;28.30;37.02
11011;BME280;5558;42.702;23.178;2023-05-01T10:13:39;93785.81;;;28.30;36.89
11011;BME280;5558;42.702;23.178;2023-05-01T10:16:06;93788.16;;;28.28;36.78
11011;BME280;5558;42.702;23.178;2023-05-01T10:18:35;93791.16;;;28.23;36.92
11011;BME280;5558;42.702;23.178;2023-05-01T10:21:02;93780.28;;;28.23;36.84
11011;BME280;5558;42.702;23.178;2023-05-01T10:23:30;93783.41;;;28.25;37.00
11011;BME280;5558;42.702;23.178;2023-05-01T10:26:00;93782.66;;;28.24;36.91
11011;BME280;5558;42.702;23.178;2023-05-01T10:28:28;93779.47;;;28.19;36.83
11011;BME280;5558;42.702;23.178;2023-05-01T10:30:56;93782.16;;;28.15;36.94
11011;BME280;5558;42.702;23.178;2023-05-01T10:33:23;93788.78;;;28.18;37.00
11011;BME280;5558;42.702;23.178;2023-05-01T10:35:56;93792.63;;;28.13;37.02
11011;BME280;5558;42.702;23.178;2023-05-01T10:38:29;93791.44;;;28.11;36.93
11011;BME280;5558;42.702;23.178;2023-05-01T10:40:59;93787.50;;;28.08;36.96
11011;BME280;5558;42.702;23.178;2023-05-01T10:43:27;93788.69;;;28.07;37.10
11011;BME280;5558;42.702;23.178;2023-05-01T10:46:26;93784.78;;;28.08;37.12
11011;BME280;5558;42.702;23.178;2023-05-01T10:48:58;93789.03;;;28.06;37.06
11011;BME280;5558;42.702;23.178;2023-05-01T10:51:25;93783.94;;;28.04;37.10
11011;BME280;5558;42.702;23.178;2023-05-01T10:54:21;93778.16;;;28.06;37.01
11011;BME280;5558;42.702;23.178;2023-05-01T10:56:50;93785.53;;;28.05;37.04
11011;BME280;5558;42.702;23.178;2023-05-01T10:59:16;93779.72;;;28.07;37.06
11011;BME280;5558;42.702;23.178;2023-05-01T11:01:44;93782.44;;;28.07;37.01
11011;BME280;5558;42.702;23.178;2023-05-01T11:04:47;93782.84;;;28.09;36.88
11011;BME280;5558;42.702;23.178;2023-05-01T11:07:16;93773.53;;;28.10;36.94
11011;BME280;5558;42.702;23.178;2023-05-01T11:09:44;93774.31;;;28.10;36.85
11011;BME280;5558;42.702;23.178;2023-05-01T11:12:14;93781.69;;;28.10;36.91
11011;BME280;5558;42.702;23.178;2023-05-01T11:15:03;93782.06;;;28.08;36.86
11011;BME280;5558;42.702;23.178;2023-05-01T11:17:45;93785.16;;;28.07;36.90
11011;BME280;5558;42.702;23.178;2023-05-01T11:20:12;93784.00;;;28.08;36.81
11011;BME280;5558;42.702;23.178;2023-05-01T11:22:59;93773.91;;;28.08;36.83
11011;BME280;5558;42.702;23.178;2023-05-01T11:25:27;93778.53;;;28.08;36.73
11011;BME280;5558;42.702;23.178;2023-05-01T11:27:56;93773.53;;;28.10;36.71
11011;BME280;5558;42.702;23.178;2023-05-01T11:30:23;93772.72;;;28.09;36.70
11011;BME280;5558;42.702;23.178;2023-05-01T11:32:50;93769.63;;;28.07;36.65
11011;BME280;5558;42.702;23.178;2023-05-01T11:35:18;93778.53;;;28.08;36.72
11011;BME280;5558;42.702;23.178;2023-05-01T11:37:45;93770.38;;;28.08;36.77
11011;BME280;5558;42.702;23.178;2023-05-01T11:40:20;93762.59;;;28.06;36.58
11011;BME280;5558;42.702;23.178;2023-05-01T11:42:47;93764.94;;;28.08;36.64
11011;BME280;5558;42.702;23.178;2023-05-01T11:45:17;93765.72;;;28.08;36.55
11011;BME280;5558;42.702;23.178;2023-05-01T11:47:44;93772.44;;;28.18;37.73
11011;BME280;5558;42.702;23.178;2023-05-01T11:56:02;93740.94;;;21.32;37.20
11011;BME280;5558;42.702;23.178;2023-05-01T11:58:32;93743.59;;;20.15;39.87
11011;BME280;5558;42.702;23.178;2023-05-01T12:01:00;93745.81;;;19.96;40.87
11011;BME280;5558;42.702;23.178;2023-05-01T12:03:27;93730.41;;;19.42;40.76
11011;BME280;5558;42.702;23.178;2023-05-01T12:05:54;93749.19;;;19.59;41.32
11011;BME280;5558;42.702;23.178;2023-05-01T12:08:21;93743.34;;;19.66;41.33
11011;BME280;5558;42.702;23.178;2023-05-01T12:10:50;93737.53;;;19.47;40.48
11011;BME280;5558;42.702;23.178;2023-05-01T12:13:19;93742.66;;;19.86;40.94
11011;BME280;5558;42.702;23.178;2023-05-01T12:15:47;93736.50;;;19.94;39.10
11011;BME280;5558;42.702;23.178;2023-05-01T12:18:14;93742.50;;;19.99;39.32
11011;BME280;5558;42.702;23.178;2023-05-01T12:20:44;93738.44;;;19.76;40.98
11011;BME280;5558;42.702;23.178;2023-05-01T12:23:12;93736.91;;;19.32;41.26
11011;BME280;5558;42.702;23.178;2023-05-01T12:25:41;93740.34;;;19.07;42.09
11011;BME280;5558;42.702;23.178;2023-05-01T12:28:09;93742.22;;;19.07;41.13
11011;BME280;5558;42.702;23.178;2023-05-01T12:30:37;93733.63;;;18.71;42.24
11011;BME280;5558;42.702;23.178;2023-05-01T12:33:09;93734.38;;;18.54;43.21
11011;BME280;5558;42.702;23.178;2023-05-01T12:35:37;93743.75;;;18.35;43.46
11011;BME280;5558;42.702;23.178;2023-05-01T12:38:12;93728.63;;;18.39;43.17
11011;BME280;5558;42.702;23.178;2023-05-01T12:40:47;93739.97;;;18.36;42.87
11011;BME280;5558;42.702;23.178;2023-05-01T12:43:15;93733.41;;;18.11;43.90
11011;BME280;5558;42.702;23.178;2023-05-01T12:45:43;93740.66;;;18.10;43.96
11011;BME280;5558;42.702;23.178;2023-05-01T12:48:13;93742.91;;;17.64;45.80
11011;BME280;5558;42.702;23.178;2023-05-01T12:50:40;93741.28;;;17.55;44.28
11011;BME280;5558;42.702;23.178;2023-05-01T12:53:08;93750.94;;;17.64;43.43
11011;BME280;5558;42.702;23.178;2023-05-01T12:55:43;93739.75;;;17.62;44.45
11011;BME280;5558;42.702;23.178;2023-05-01T12:58:10;93745.16;;;18.01;43.03
11011;BME280;5558;42.702;23.178;2023-05-01T13:00:43;93743.44;;;18.36;43.13
11011;BME280;5558;42.702;23.178;2023-05-01T13:03:11;93756.97;;;18.31;42.56
11011;BME280;5558;42.702;23.178;2023-05-01T13:05:49;93750.84;;;18.00;42.48
11011;BME280;5558;42.702;23.178;2023-05-01T13:08:23;93746.84;;;17.89;42.72
11011;BME280;5558;42.702;23.178;2023-05-01T13:10:52;93736.59;;;18.21;42.15
11011;BME280;5558;42.702;23.178;2023-05-01T13:13:26;93750.34;;;18.28;41.59